Time;durP1;ratioP1;P1;durP2;ratioP2;P2;SDS_P1;SDS_P2;PMS_P1;PMS_P2;Temp;Humidity;BMP_temperature;BMP_pressure;BME280_temperature;BME280_humidity;BME280_pressure;Samples;Min_cycle;Max_cycle;Signal;HPM_P1;HPM_P2
2023/03/18 00:01:08;;;;;;;;;;;;;;;;;;4439273;32;19941;-77
2023/03/18 00:03:33;;;;;;;;;;;;;;;;;;4439406;32;20023;-77
2023/03/18 00:05:58;;;;;;;;;;;;;;;;;;4439704;32;19933;-78
2023/03/18 00:08:24;;;;;;;;;;;;;;;;;;4444277;32;19944;-77
2023/03/18 00:10:49;;;;;;;;;;;;;;;;;;4444299;32;20223;-77
2023/03/18 00:13:14;;;;;;;;;;;;;;;;;;4445407;32;19933;-78
2023/03/18 00:15:39;;;;;;;;;;;;;;;;;;4440290;32;19961;-78
2023/03/18 00:18:05;;;;;;;;;;;;;;;;;;4439920;32;20273;-77
2023/03/18 00:20:40;;;;;;;;;;;;;;;;;;4439142;32;19937;-77
2023/03/18 00:23:05;;;;;;;;;;;;;;;;;;4438559;32;19940;-78
2023/03/18 00:25:31;;;;;;;;;;;;;;;;;;4438072;32;19937;-77
2023/03/18 00:27:56;;;;;;;;;;;;;;;;;;4439107;32;20247;-78
2023/03/18 00:30:22;;;;;;;;;;;;;;;;;;4437351;32;20014;-78
2023/03/18 00:32:47;;;;;;;;;;;;;;;;;;4438156;32;19951;-78
2023/03/18 00:35:13;;;;;;;;;;;;;;;;;;4424944;32;19941;-78
2023/03/18 00:37:38;;;;;;;;;;;;;;;;;;4426524;32;19951;-78
2023/03/18 00:40:05;;;;;;;;;;;;;;;;;;4441730;32;20336;-78
2023/03/18 00:42:36;;;;;;;;;;;;;;;;;;4441668;32;20294;-77
2023/03/18 00:45:03;;;;;;;;;;;;;;;;;;4426894;32;19987;-78
2023/03/18 00:47:28;;;;;;;;;;;;;;;;;;4424462;32;20310;-77
2023/03/18 00:49:53;;;;;;;;;;;;;;;;;;4439237;32;20346;-78
2023/03/18 00:52:18;;;;;;;;;;;;;;;;;;4439371;32;20358;-78
2023/03/18 00:54:43;;;;;;;;;;;;;;;;;;4422578;32;19941;-78
2023/03/18 00:57:09;;;;;;;;;;;;;;;;;;4422157;32;19952;-78
2023/03/18 00:59:34;;;;;;;;;;;;;;;;;;4421345;32;19933;-78
2023/03/18 01:01:59;;;;;;;;;;;;;;;;;;4423238;32;19949;-78
2023/03/18 01:04:26;;;;;;;;;;;;;;;;;;4425048;32;19937;-78
2023/03/18 01:06:51;;;;;;;;;;;;;;;;;;4423394;32;19938;-78
2023/03/18 01:09:17;;;;;;;;;;;;;;;;;;4424162;32;19947;-78
2023/03/18 01:11:42;;;;;;;;;;;;;;;;;;4425155;32;19956;-78
2023/03/18 01:14:07;;;;;;;;;;;;;;;;;;4441417;32;19982;-77
2023/03/18 01:16:32;;;;;;;;;;;;;;;;;;4440440;32;19959;-78
2023/03/18 01:18:58;;;;;;;;;;;;;;;;;;4443674;32;19938;-78
2023/03/18 01:21:24;;;;;;;;;;;;;;;;;;4437412;32;20313;-77
2023/03/18 01:23:49;;;;;;;;;;;;;;;;;;4437919;32;20296;-77
2023/03/18 01:26:15;;;;;;;;;;;;;;;;;;4437845;32;20378;-78
2023/03/18 01:28:41;;;;;;;;;;;;;;;;;;4437959;32;19956;-77
2023/03/18 01:31:07;;;;;;;;;;;;;;;;;;4436250;32;19929;-78
2023/03/18 01:33:32;;;;;;;;;;;;;;;;;;4436411;32;19943;-78
2023/03/18 01:35:57;;;;;;;;;;;;;;;;;;4437756;32;19962;-78
2023/03/18 01:38:22;;;;;;;;;;;;;;;;;;4436730;32;19963;-78
2023/03/18 01:40:48;;;;;;;;;;;;;;;;;;4436852;32;19929;-78
2023/03/18 01:43:13;;;;;;;;;;;;;;;;;;4425108;32;19932;-77
2023/03/18 01:45:39;;;;;;;;;;;;;;;;;;4438386;32;19941;-78
2023/03/18 01:48:04;;;;;;;;;;;;;;;;;;4438240;32;20291;-78
2023/03/18 01:50:29;;;;;;;;;;;;;;;;;;4436182;32;19937;-78
2023/03/18 01:52:55;;;;;;;;;;;;;;;;;;4436202;32;20001;-78
2023/03/18 01:55:20;;;;;;;;;;;;;;;;;;4438287;32;19936;-78
2023/03/18 01:57:45;;;;;;;;;;;;;;;;;;4440657;32;19956;-77
2023/03/18 02:00:10;;;;;;;;;;;;;;;;;;4438647;32;20361;-77
2023/03/18 02:02:35;;;;;;;;;;;;;;;;;;4437234;32;19944;-77
2023/03/18 02:05:01;;;;;;;;;;;;;;;;;;4437875;32;19948;-78
2023/03/18 02:07:28;;;;;;;;;;;;;;;;;;4436287;32;19940;-76
2023/03/18 02:15:22;;;;;;;;;;;;;;;;;;4438118;32;19932;-77
2023/03/18 02:17:47;;;;;;;;;;;;;;;;;;4439261;32;19937;-77
2023/03/18 02:20:12;;;;;;;;;;;;;;;;;;4436398;32;19949;-77
2023/03/18 02:22:38;;;;;;;;;;;;;;;;;;4436839;32;19984;-77
2023/03/18 02:25:04;;;;;;;;;;;;;;;;;;4438683;32;19978;-77
2023/03/18 02:27:29;;;;;;;;;;;;;;;;;;4436369;32;19933;-77
2023/03/18 02:29:55;;;;;;;;;;;;;;;;;;4436143;32;20337;-76
2023/03/18 02:32:20;;;;;;;;;;;;;;;;;;4425554;32;19933;-78
2023/03/18 02:34:46;;;;;;;;;;;;;;;;;;4435071;32;20275;-78
2023/03/18 02:37:11;;;;;;;;;;;;;;;;;;4427006;32;19944;-78
2023/03/18 02:39:36;;;;;;;;;;;;;;;;;;4436297;32;20305;-78
2023/03/18 02:42:01;;;;;;;;;;;;;;;;;;4437529;32;19947;-78
2023/03/18 02:44:26;;;;;;;;;;;;;;;;;;4437413;32;20325;-78
2023/03/18 02:46:52;;;;;;;;;;;;;;;;;;4437944;32;20322;-78
2023/03/18 02:49:18;;;;;;;;;;;;;;;;;;4436938;32;19997;-78
2023/03/18 02:51:43;;;;;;;;;;;;;;;;;;4436856;32;20309;-77
2023/03/18 02:54:09;;;;;;;;;;;;;;;;;;4437317;32;19947;-76
2023/03/18 02:56:34;;;;;;;;;;;;;;;;;;4439054;32;20272;-78
2023/03/18 02:58:59;;;;;;;;;;;;;;;;;;4440071;32;20312;-77
2023/03/18 03:01:24;;;;;;;;;;;;;;;;;;4441902;32;19933;-76
2023/03/18 03:03:50;;;;;;;;;;;;;;;;;;4439937;32;19941;-76
2023/03/18 03:06:15;;;;;;;;;;;;;;;;;;4438937;32;19957;-78
2023/03/18 03:08:40;;;;;;;;;;;;;;;;;;4439249;32;19964;-77
2023/03/18 03:11:07;;;;;;;;;;;;;;;;;;4437966;32;19945;-77
2023/03/18 03:13:32;;;;;;;;;;;;;;;;;;4440111;32;20032;-78
2023/03/18 03:15:58;;;;;;;;;;;;;;;;;;4438304;32;19936;-80
2023/03/18 03:18:23;;;;;;;;;;;;;;;;;;4439570;32;20415;-76
2023/03/18 03:20:48;;;;;;;;;;;;;;;;;;4440455;32;19941;-77
2023/03/18 03:23:13;;;;;;;;;;;;;;;;;;4440795;32;19959;-78
2023/03/18 03:25:38;;;;;;;;;;;;;;;;;;4442089;32;19952;-78
2023/03/18 03:28:04;;;;;;;;;;;;;;;;;;4441431;32;19944;-78
2023/03/18 03:30:29;;;;;;;;;;;;;;;;;;4439951;32;19973;-77
2023/03/18 03:32:54;;;;;;;;;;;;;;;;;;4438515;32;20294;-77
2023/03/18 03:35:19;;;;;;;;;;;;;;;;;;4438241;32;19980;-78
2023/03/18 03:37:45;;;;;;;;;;;;;;;;;;4439233;32;20268;-78
2023/03/18 03:40:10;;;;;;;;;;;;;;;;;;4438664;32;20019;-77
2023/03/18 03:42:35;;;;;;;;;;;;;;;;;;4438245;32;19947;-76
2023/03/18 03:45:00;;;;;;;;;;;;;;;;;;4439725;32;19955;-77
2023/03/18 03:47:26;;;;;;;;;;;;;;;;;;4442699;32;19949;-77
2023/03/18 03:49:51;;;;;;;;;;;;;;;;;;4444491;32;19952;-78
2023/03/18 03:52:18;;;;;;;;;;;;;;;;;;4439626;32;19932;-78
2023/03/18 03:54:43;;;;;;;;;;;;;;;;;;4437698;32;19960;-78
2023/03/18 03:57:09;;;;;;;;;;;;;;;;;;4439143;32;20326;-78
2023/03/18 03:59:34;;;;;;;;;;;;;;;;;;4437702;32;19941;-78
2023/03/18 04:01:59;;;;;;;;;;;;;;;;;;4439968;32;19941;-77
2023/03/18 04:04:24;;;;;;;;;;;;;;;;;;4440832;32;19970;-78
2023/03/18 04:06:50;;;;;;;;;;;;;;;;;;4441651;32;19948;-77
2023/03/18 04:09:16;;;;;;;;;;;;;;;;;;4439516;32;19937;-77
2023/03/18 04:11:43;;;;;;;;;;;;;;;;;;4439652;32;19988;-76
2023/03/18 04:14:08;;;;;;;;;;;;;;;;;;4439259;32;19940;-77
2023/03/18 04:16:33;;;;;;;;;;;;;;;;;;4443117;32;19964;-77
2023/03/18 04:18:58;;;;;;;;;;;;;;;;;;4443364;32;19960;-77
2023/03/18 04:21:23;;;;;;;;;;;;;;;;;;4439430;32;19968;-77
2023/03/18 04:23:49;;;;;;;;;;;;;;;;;;4438759;32;19981;-77
2023/03/18 04:26:14;;;;;;;;;;;;;;;;;;4438771;32;19959;-77
2023/03/18 04:28:39;;;;;;;;;;;;;;;;;;4437424;32;19936;-77
2023/03/18 04:31:04;;;;;;;;;;;;;;;;;;4438283;32;20384;-77
2023/03/18 04:33:29;;;;;;;;;;;;;;;;;;4438704;32;19992;-78
2023/03/18 04:35:55;;;;;;;;;;;;;;;;;;4438867;32;19937;-79
2023/03/18 04:38:20;;;;;;;;;;;;;;;;;;4438111;32;20274;-78
2023/03/18 04:40:45;;;;;;;;;;;;;;;;;;4437182;32;19944;-78
2023/03/18 04:43:10;;;;;;;;;;;;;;;;;;4438334;32;19956;-78
2023/03/18 04:45:35;;;;;;;;;;;;;;;;;;4438127;32;19940;-78
2023/03/18 04:48:00;;;;;;;;;;;;;;;;;;4424272;32;19948;-79
2023/03/18 04:50:26;;;;;;;;;;;;;;;;;;4438213;32;19947;-77
2023/03/18 04:52:51;;;;;;;;;;;;;;;;;;4430163;32;19940;-78
2023/03/18 04:55:19;;;;;;;;;;;;;;;;;;4424417;32;19969;-78
2023/03/18 04:57:44;;;;;;;;;;;;;;;;;;4424466;32;20284;-77
2023/03/18 05:00:10;;;;;;;;;;;;;;;;;;4439195;32;19940;-77
2023/03/18 05:02:35;;;;;;;;;;;;;;;;;;4438399;32;19951;-76
2023/03/18 05:05:00;;;;;;;;;;;;;;;;;;4437667;32;20301;-77
2023/03/18 05:07:26;;;;;;;;;;;;;;;;;;4437664;32;20272;-77
2023/03/18 05:09:51;;;;;;;;;;;;;;;;;;4437942;32;19929;-77
2023/03/18 05:12:17;;;;;;;;;;;;;;;;;;4426468;32;19940;-77
2023/03/18 05:14:42;;;;;;;;;;;;;;;;;;4437881;32;19994;-78
2023/03/18 05:17:08;;;;;;;;;;;;;;;;;;4423408;32;19960;-78
2023/03/18 05:19:33;;;;;;;;;;;;;;;;;;4425440;32;20327;-78
2023/03/18 05:21:59;;;;;;;;;;;;;;;;;;4437810;32;20302;-78
2023/03/18 05:24:24;;;;;;;;;;;;;;;;;;4437825;32;19947;-76
2023/03/18 05:26:49;;;;;;;;;;;;;;;;;;4437650;32;19970;-77
2023/03/18 05:29:15;;;;;;;;;;;;;;;;;;4438507;32;19969;-77
2023/03/18 05:31:40;;;;;;;;;;;;;;;;;;4423350;32;19986;-78
2023/03/18 05:34:06;;;;;;;;;;;;;;;;;;4423921;32;19992;-77
2023/03/18 05:36:31;;;;;;;;;;;;;;;;;;4423406;32;20254;-79
2023/03/18 05:38:56;;;;;;;;;;;;;;;;;;4423943;32;19966;-78
2023/03/18 05:41:22;;;;;;;;;;;;;;;;;;4423448;32;19941;-77
2023/03/18 05:43:47;;;;;;;;;;;;;;;;;;4423853;32;20351;-78
2023/03/18 05:46:12;;;;;;;;;;;;;;;;;;4423580;32;20011;-78
2023/03/18 05:48:37;;;;;;;;;;;;;;;;;;4423289;32;19988;-78
2023/03/18 05:51:03;;;;;;;;;;;;;;;;;;4437114;32;19937;-78
2023/03/18 05:53:28;;;;;;;;;;;;;;;;;;4436439;32;19948;-78
2023/03/18 05:55:53;;;;;;;;;;;;;;;;;;4436752;32;19944;-77
2023/03/18 05:58:19;;;;;;;;;;;;;;;;;;4430594;32;19940;-77
2023/03/18 06:00:45;;;;;;;;;;;;;;;;;;4437007;32;19949;-78
2023/03/18 06:03:10;;;;;;;;;;;;;;;;;;4436987;32;19933;-78
2023/03/18 06:05:35;;;;;;;;;;;;;;;;;;4434588;32;19956;-78
2023/03/18 06:08:00;;;;;;;;;;;;;;;;;;4443283;32;19947;-77
2023/03/18 06:10:25;;;;;;;;;;;;;;;;;;4440743;32;19933;-77
2023/03/18 06:12:50;;;;;;;;;;;;;;;;;;4434124;32;19949;-78
2023/03/18 06:15:16;;;;;;;;;;;;;;;;;;4445168;32;20010;-77
2023/03/18 06:17:41;;;;;;;;;;;;;;;;;;4425948;32;20338;-79
2023/03/18 06:20:07;;;;;;;;;;;;;;;;;;4440762;32;19984;-78
2023/03/18 06:22:32;;;;;;;;;;;;;;;;;;4439093;32;19988;-78
2023/03/18 06:24:57;;;;;;;;;;;;;;;;;;4424029;32;19933;-78
2023/03/18 06:27:22;;;;;;;;;;;;;;;;;;4438293;32;20051;-77
2023/03/18 06:29:47;;;;;;;;;;;;;;;;;;4439270;32;19948;-79
2023/03/18 06:32:13;;;;;;;;;;;;;;;;;;4442851;32;19936;-78
2023/03/18 06:34:38;;;;;;;;;;;;;;;;;;4440182;32;19985;-79
2023/03/18 06:37:03;;;;;;;;;;;;;;;;;;4437133;32;19960;-79
2023/03/18 06:39:28;;;;;;;;;;;;;;;;;;4439077;32;19996;-79
2023/03/18 06:41:53;;;;;;;;;;;;;;;;;;4436809;32;20305;-79
2023/03/18 06:44:18;;;;;;;;;;;;;;;;;;4423683;32;19932;-79
2023/03/18 06:46:44;;;;;;;;;;;;;;;;;;4423600;32;19972;-79
2023/03/18 06:49:10;;;;;;;;;;;;;;;;;;4436990;32;20273;-79
2023/03/18 06:51:39;;;;;;;;;;;;;;;;;;4438072;32;19945;-79
2023/03/18 06:54:04;;;;;;;;;;;;;;;;;;4431926;32;20010;-78
2023/03/18 06:56:32;;;;;;;;;;;;;;;;;;4435127;32;19961;-78
2023/03/18 06:58:57;;;;;;;;;;;;;;;;;;4435074;32;20365;-79
2023/03/18 07:01:22;;;;;;;;;;;;;;;;;;4437171;32;20290;-78
2023/03/18 07:03:48;;;;;;;;;;;;;;;;;;4437758;32;19951;-78
2023/03/18 07:06:14;;;;;;;;;;;;;;;;;;4436892;32;19979;-79
2023/03/18 07:08:39;;;;;;;;;;;;;;;;;;4435711;32;19989;-79
2023/03/18 07:11:05;;;;;;;;;;;;;;;;;;4435640;32;19992;-79
2023/03/18 07:16:15;;;;;;;;;;;;;;;;;;4437714;32;20339;-78
2023/03/18 07:18:41;;;;;;;;;;;;;;;;;;4435148;32;19963;-79
2023/03/18 07:21:06;;;;;;;;;;;;;;;;;;4436043;32;19960;-79
2023/03/18 07:26:28;;;;;;;;;;;;;;;;;;4436373;32;19947;-78
2023/03/18 07:28:53;;;;;;;;;;;;;;;;;;4436911;32;20004;-77
2023/03/18 07:31:18;;;;;;;;;;;;;;;;;;4422349;32;19941;-77
2023/03/18 07:33:43;;;;;;;;;;;;;;;;;;4435199;32;20001;-78
2023/03/18 07:36:08;;;;;;;;;;;;;;;;;;4435359;32;19989;-78
2023/03/18 07:38:33;;;;;;;;;;;;;;;;;;4437201;32;19968;-77
2023/03/18 07:40:59;;;;;;;;;;;;;;;;;;4435029;32;20265;-78
2023/03/18 07:43:24;;;;;;;;;;;;;;;;;;4435315;32;19932;-79
2023/03/18 07:45:49;;;;;;;;;;;;;;;;;;4434797;32;19952;-79
2023/03/18 07:48:14;;;;;;;;;;;;;;;;;;4436544;32;20305;-78
2023/03/18 07:53:14;;;;;;;;;;;;;;;;;;4437236;32;19960;-77
2023/03/18 07:55:40;;;;;;;;;;;;;;;;;;4443583;32;19977;-78
2023/03/18 07:58:06;;;;;;;;;;;;;;;;;;4437776;32;19952;-78
2023/03/18 08:00:31;;;;;;;;;;;;;;;;;;4426754;32;20019;-78
2023/03/18 08:02:56;;;;;;;;;;;;;;;;;;4436098;32;19941;-79
2023/03/18 08:05:22;;;;;;;;;;;;;;;;;;4437300;32;19949;-79
2023/03/18 08:07:47;;;;;;;;;;;;;;;;;;4422036;32;20275;-79
2023/03/18 08:10:13;;;;;;;;;;;;;;;;;;4436488;32;19952;-78
2023/03/18 08:12:38;;;;;;;;;;;;;;;;;;4435175;32;19946;-79
2023/03/18 08:15:03;;;;;;;;;;;;;;;;;;4436673;32;19972;-79
2023/03/18 08:17:29;;;;;;;;;;;;;;;;;;4438751;32;19951;-78
2023/03/18 08:19:54;;;;;;;;;;;;;;;;;;4440647;32;19973;-80
2023/03/18 08:22:19;;;;;;;;;;;;;;;;;;4432107;32;19933;-78
2023/03/18 08:24:45;;;;;;;;;;;;;;;;;;4431104;32;20308;-78
2023/03/18 08:27:10;;;;;;;;;;;;;;;;;;4424622;32;19937;-78
2023/03/18 08:29:35;;;;;;;;;;;;;;;;;;4438681;32;19933;-78
2023/03/18 08:32:01;;;;;;;;;;;;;;;;;;4437752;32;19937;-77
2023/03/18 08:37:10;;;;;;;;;;;;;;;;;;4440558;32;19936;-78
2023/03/18 08:39:36;;;;;;;;;;;;;;;;;;4441229;32;19964;-78
2023/03/18 08:42:02;;;;;;;;;;;;;;;;;;4424629;32;19950;-78
2023/03/18 08:44:27;;;;;;;;;;;;;;;;;;4439021;32;20309;-78
2023/03/18 08:46:52;;;;;;;;;;;;;;;;;;4424307;32;20351;-79
2023/03/18 08:49:17;;;;;;;;;;;;;;;;;;4424713;32;19937;-77
2023/03/18 08:51:43;;;;;;;;;;;;;;;;;;4439746;32;20116;-78
2023/03/18 08:54:08;;;;;;;;;;;;;;;;;;4426073;32;19959;-77
2023/03/18 08:56:33;;;;;;;;;;;;;;;;;;4442388;32;19972;-76
2023/03/18 08:58:59;;;;;;;;;;;;;;;;;;4441867;32;19970;-77
2023/03/18 09:01:24;;;;;;;;;;;;;;;;;;4426928;32;19945;-77
2023/03/18 09:03:49;;;;;;;;;;;;;;;;;;4439909;32;19969;-77
2023/03/18 09:06:14;;;;;;;;;;;;;;;;;;4437265;32;19933;-77
2023/03/18 09:08:39;;;;;;;;;;;;;;;;;;4438571;32;19957;-76
2023/03/18 09:11:06;;;;;;;;;;;;;;;;;;4437024;32;19941;-76
2023/03/18 09:13:31;;;;;;;;;;;;;;;;;;4437257;32;19981;-77
2023/03/18 09:15:56;;;;;;;;;;;;;;;;;;4437100;32;19970;-77
2023/03/18 09:18:22;;;;;;;;;;;;;;;;;;4440273;32;19941;-76
2023/03/18 09:20:47;;;;;;;;;;;;;;;;;;4424087;32;19996;-76
2023/03/18 09:23:12;;;;;;;;;;;;;;;;;;4438253;32;19948;-77
2023/03/18 09:25:37;;;;;;;;;;;;;;;;;;4423914;32;19943;-77
2023/03/18 09:28:02;;;;;;;;;;;;;;;;;;4424767;32;20344;-77
2023/03/18 09:30:27;;;;;;;;;;;;;;;;;;4437559;32;20039;-78
2023/03/18 09:32:52;;;;;;;;;;;;;;;;;;4437822;32;19982;-78
2023/03/18 09:35:17;;;;;;;;;;;;;;;;;;4423632;32;19948;-77
2023/03/18 09:37:43;;;;;;;;;;;;;;;;;;4437432;32;19951;-76
2023/03/18 09:40:09;;;;;;;;;;;;;;;;;;4435573;32;20060;-77
2023/03/18 09:42:35;;;;;;;;;;;;;;;;;;4436152;32;19929;-77
2023/03/18 09:45:00;;;;;;;;;;;;;;;;;;4437292;32;20013;-76
2023/03/18 09:47:25;;;;;;;;;;;;;;;;;;4438371;32;19984;-76
2023/03/18 09:49:50;;;;;;;;;;;;;;;;;;4437509;32;19970;-76
2023/03/18 09:52:15;;;;;;;;;;;;;;;;;;4437669;32;20257;-79
2023/03/18 09:54:40;;;;;;;;;;;;;;;;;;4437347;32;19932;-77
2023/03/18 09:57:07;;;;;;;;;;;;;;;;;;4435763;32;20352;-77
2023/03/18 09:59:32;;;;;;;;;;;;;;;;;;4435661;32;19940;-77
2023/03/18 10:01:57;;;;;;;;;;;;;;;;;;4436896;32;19961;-76
2023/03/18 10:04:22;;;;;;;;;;;;;;;;;;4435785;32;19983;-77
2023/03/18 10:06:47;;;;;;;;;;;;;;;;;;4438832;32;19932;-77
2023/03/18 10:09:13;;;;;;;;;;;;;;;;;;4435373;32;19968;-77
2023/03/18 10:11:38;;;;;;;;;;;;;;;;;;4437633;32;19951;-77
2023/03/18 10:14:04;;;;;;;;;;;;;;;;;;4436971;32;20269;-77
2023/03/18 10:16:29;;;;;;;;;;;;;;;;;;4436239;32;19981;-77
2023/03/18 10:18:54;;;;;;;;;;;;;;;;;;4435372;32;19937;-77
2023/03/18 10:21:20;;;;;;;;;;;;;;;;;;4437444;32;19955;-77
2023/03/18 10:23:45;;;;;;;;;;;;;;;;;;4438610;32;19941;-77
2023/03/18 10:26:10;;;;;;;;;;;;;;;;;;4440728;32;19937;-77
2023/03/18 10:28:35;;;;;;;;;;;;;;;;;;4438355;32;19932;-77
2023/03/18 10:31:00;;;;;;;;;;;;;;;;;;4437085;32;20347;-77
2023/03/18 10:33:26;;;;;;;;;;;;;;;;;;4437615;32;19932;-78
2023/03/18 10:35:51;;;;;;;;;;;;;;;;;;4421845;32;19975;-77
2023/03/18 10:38:17;;;;;;;;;;;;;;;;;;4421786;32;19937;-77
2023/03/18 10:40:42;;;;;;;;;;;;;;;;;;4421365;32;19937;-78
2023/03/18 10:43:07;;;;;;;;;;;;;;;;;;4421934;32;19998;-77
2023/03/18 10:45:32;;;;;;;;;;;;;;;;;;4428649;32;19934;-78
2023/03/18 10:47:57;;;;;;;;;;;;;;;;;;4420328;32;20211;-78
2023/03/18 10:50:22;;;;;;;;;;;;;;;;;;4421420;32;20397;-77
2023/03/18 10:52:48;;;;;;;;;;;;;;;;;;4419656;32;19952;-76
2023/03/18 10:55:13;;;;;;;;;;;;;;;;;;4421058;32;20270;-78
2023/03/18 10:57:38;;;;;;;;;;;;;;;;;;4429594;32;19952;-76
2023/03/18 11:00:03;;;;;;;;;;;;;;;;;;4435510;32;19960;-77
2023/03/18 11:02:28;;;;;;;;;;;;;;;;;;4437917;32;19981;-78
2023/03/18 11:04:54;;;;;;;;;;;;;;;;;;4434676;32;20035;-77
2023/03/18 11:07:19;;;;;;;;;;;;;;;;;;4421176;32;19929;-78
2023/03/18 11:09:44;;;;;;;;;;;;;;;;;;4420332;32;19944;-77
2023/03/18 11:12:09;;;;;;;;;;;;;;;;;;4422477;32;19937;-77
2023/03/18 11:14:36;;;;;;;;;;;;;;;;;;4419836;32;20028;-77
2023/03/18 11:17:04;;;;;;;;;;;;;;;;;;4420531;32;20329;-77
2023/03/18 11:19:30;;;;;;;;;;;;;;;;;;4421005;32;19957;-78
2023/03/18 11:21:56;;;;;;;;;;;;;;;;;;4420650;32;19948;-77
2023/03/18 11:24:33;;;;;;;;;;;;;;;;;;4419938;32;19937;-77
2023/03/18 11:26:58;;;;;;;;;;;;;;;;;;4421275;32;20285;-77
2023/03/18 11:29:23;;;;;;;;;;;;;;;;;;4421450;32;19933;-77
2023/03/18 11:31:50;;;;;;;;;;;;;;;;;;4420073;32;19945;-78
2023/03/18 11:34:15;;;;;;;;;;;;;;;;;;4421155;32;19947;-78
2023/03/18 11:36:40;;;;;;;;;;;;;;;;;;4425644;32;19945;-77
2023/03/18 11:39:05;;;;;;;;;;;;;;;;;;4435395;32;20273;-77
2023/03/18 11:41:30;;;;;;;;;;;;;;;;;;4437820;32;20278;-77
2023/03/18 11:43:58;;;;;;;;;;;;;;;;;;4437428;32;19937;-77
2023/03/18 11:46:23;;;;;;;;;;;;;;;;;;4440632;32;19929;-77
2023/03/18 11:48:48;;;;;;;;;;;;;;;;;;4441370;32;19932;-77
2023/03/18 11:51:13;;;;;;;;;;;;;;;;;;4442015;32;19932;-78
2023/03/18 11:53:38;;;;;;;;;;;;;;;;;;4441442;32;19936;-77
2023/03/18 11:56:03;;;;;;;;;;;;;;;;;;4443615;32;20464;-77
2023/03/18 11:58:28;;;;;;;;;;;;;;;;;;4440318;32;20314;-77
2023/03/18 12:03:38;;;;;;;;;;;;;;;;;;4430162;32;19994;-76
2023/03/18 12:06:04;;;;;;;;;;;;;;;;;;4439199;32;19979;-77
2023/03/18 12:08:30;;;;;;;;;;;;;;;;;;4437777;32;20351;-77
2023/03/18 12:10:56;;;;;;;;;;;;;;;;;;4437711;32;19929;-78
2023/03/18 12:13:21;;;;;;;;;;;;;;;;;;4438882;32;20326;-77
2023/03/18 12:15:46;;;;;;;;;;;;;;;;;;4438977;32;19976;-76
2023/03/18 12:18:11;;;;;;;;;;;;;;;;;;4437961;32;19940;-76
2023/03/18 12:20:39;;;;;;;;;;;;;;;;;;4437765;32;19945;-78
2023/03/18 12:23:05;;;;;;;;;;;;;;;;;;4437667;32;20311;-77
2023/03/18 12:25:30;;;;;;;;;;;;;;;;;;4437529;32;19933;-77
2023/03/18 12:27:56;;;;;;;;;;;;;;;;;;4438924;32;19963;-78
2023/03/18 12:30:22;;;;;;;;;;;;;;;;;;4441561;32;19944;-78
2023/03/18 12:32:47;;;;;;;;;;;;;;;;;;4449369;32;20241;-78
2023/03/18 12:35:13;;;;;;;;;;;;;;;;;;4450253;32;19947;-78
2023/03/18 12:37:38;;;;;;;;;;;;;;;;;;4442319;32;20000;-78
2023/03/18 12:40:05;;;;;;;;;;;;;;;;;;4440760;32;20350;-78
2023/03/18 12:42:30;;;;;;;;;;;;;;;;;;4439416;32;19959;-78
2023/03/18 12:44:56;;;;;;;;;;;;;;;;;;4440415;32;20059;-77
2023/03/18 12:47:21;;;;;;;;;;;;;;;;;;4439636;32;19944;-78
2023/03/18 12:49:46;;;;;;;;;;;;;;;;;;4439316;32;19956;-78
2023/03/18 12:52:12;;;;;;;;;;;;;;;;;;4437217;32;19987;-77
2023/03/18 12:54:37;;;;;;;;;;;;;;;;;;4438586;32;19948;-77
2023/03/18 12:57:02;;;;;;;;;;;;;;;;;;4437646;32;19951;-79
2023/03/18 12:59:27;;;;;;;;;;;;;;;;;;4438951;32;20230;-79
2023/03/18 13:01:52;;;;;;;;;;;;;;;;;;4439413;32;20004;-78
2023/03/18 13:04:18;;;;;;;;;;;;;;;;;;4438792;32;19956;-78
2023/03/18 13:06:43;;;;;;;;;;;;;;;;;;4439352;32;19974;-78
2023/03/18 13:09:09;;;;;;;;;;;;;;;;;;4438090;32;19964;-78
2023/03/18 13:11:34;;;;;;;;;;;;;;;;;;4442445;32;19937;-78
2023/03/18 13:14:00;;;;;;;;;;;;;;;;;;4443335;32;19962;-79
2023/03/18 13:16:25;;;;;;;;;;;;;;;;;;4439401;32;19999;-78
2023/03/18 13:18:50;;;;;;;;;;;;;;;;;;4438205;32;20337;-79
2023/03/18 13:21:15;;;;;;;;;;;;;;;;;;4437632;32;19977;-77
2023/03/18 13:23:41;;;;;;;;;;;;;;;;;;4437532;32;19978;-78
2023/03/18 13:26:06;;;;;;;;;;;;;;;;;;4437053;32;19937;-77
2023/03/18 13:28:31;;;;;;;;;;;;;;;;;;4438047;32;19944;-78
2023/03/18 13:30:56;;;;;;;;;;;;;;;;;;4438160;32;19947;-78
2023/03/18 13:33:21;;;;;;;;;;;;;;;;;;4437578;32;19932;-78
2023/03/18 13:35:49;;;;;;;;;;;;;;;;;;4437951;32;19974;-79
2023/03/18 13:38:15;;;;;;;;;;;;;;;;;;4437806;32;19979;-78
2023/03/18 13:40:41;;;;;;;;;;;;;;;;;;4436970;32;19974;-76
2023/03/18 13:43:06;;;;;;;;;;;;;;;;;;4438597;32;19933;-77
2023/03/18 13:45:32;;;;;;;;;;;;;;;;;;4439398;32;19933;-78
2023/03/18 13:47:57;;;;;;;;;;;;;;;;;;4439900;32;19970;-77
2023/03/18 13:50:24;;;;;;;;;;;;;;;;;;4444809;32;19970;-78
2023/03/18 13:52:49;;;;;;;;;;;;;;;;;;4447694;32;19937;-76
2023/03/18 13:55:15;;;;;;;;;;;;;;;;;;4438519;32;19950;-79
2023/03/18 13:57:40;;;;;;;;;;;;;;;;;;4437770;32;19959;-78
2023/03/18 14:00:06;;;;;;;;;;;;;;;;;;4436862;32;19955;-78
2023/03/18 14:02:31;;;;;;;;;;;;;;;;;;4433134;32;19977;-78
2023/03/18 14:04:58;;;;;;;;;;;;;;;;;;4445339;32;19965;-78
2023/03/18 14:07:23;;;;;;;;;;;;;;;;;;4447975;32;19933;-77
2023/03/18 14:09:49;;;;;;;;;;;;;;;;;;4450721;32;19937;-79
2023/03/18 14:12:15;;;;;;;;;;;;;;;;;;4450136;32;19959;-76
2023/03/18 14:14:41;;;;;;;;;;;;;;;;;;4441290;32;19937;-78
2023/03/18 14:17:06;;;;;;;;;;;;;;;;;;4446330;32;19978;-77
2023/03/18 14:19:31;;;;;;;;;;;;;;;;;;4447443;32;19945;-78
2023/03/18 14:21:56;;;;;;;;;;;;;;;;;;4442622;32;20237;-77
2023/03/18 14:24:21;;;;;;;;;;;;;;;;;;4430503;32;19937;-78
2023/03/18 14:26:48;;;;;;;;;;;;;;;;;;4429350;32;19933;-77
2023/03/18 14:29:13;;;;;;;;;;;;;;;;;;4426234;32;19933;-80
2023/03/18 14:31:38;;;;;;;;;;;;;;;;;;4425956;32;19947;-77
2023/03/18 14:34:03;;;;;;;;;;;;;;;;;;4436128;32;19964;-77
2023/03/18 14:36:29;;;;;;;;;;;;;;;;;;4438309;32;19918;-79
2023/03/18 14:38:54;;;;;;;;;;;;;;;;;;4429908;32;19983;-79
2023/03/18 14:41:19;;;;;;;;;;;;;;;;;;4422453;32;19944;-77
2023/03/18 14:43:44;;;;;;;;;;;;;;;;;;4423559;32;19952;-79
2023/03/18 14:46:10;;;;;;;;;;;;;;;;;;4424567;32;19940;-79
2023/03/18 14:48:35;;;;;;;;;;;;;;;;;;4423086;32;19933;-78
2023/03/18 14:51:00;;;;;;;;;;;;;;;;;;4423883;32;19941;-79
2023/03/18 14:53:25;;;;;;;;;;;;;;;;;;4423353;32;20265;-79
2023/03/18 14:55:50;;;;;;;;;;;;;;;;;;4423438;32;19938;-79
2023/03/18 14:58:16;;;;;;;;;;;;;;;;;;4429506;32;19997;-80
2023/03/18 15:00:41;;;;;;;;;;;;;;;;;;4432834;32;19973;-79
2023/03/18 15:03:06;;;;;;;;;;;;;;;;;;4432876;32;19941;-80
2023/03/18 15:05:31;;;;;;;;;;;;;;;;;;4433617;32;19930;-80
2023/03/18 15:07:56;;;;;;;;;;;;;;;;;;4430826;32;19933;-80
2023/03/18 15:10:23;;;;;;;;;;;;;;;;;;4430245;32;20338;-79
2023/03/18 15:12:48;;;;;;;;;;;;;;;;;;4426558;32;20295;-78
2023/03/18 15:15:13;;;;;;;;;;;;;;;;;;4426179;32;20289;-79
2023/03/18 15:17:38;;;;;;;;;;;;;;;;;;4423310;32;19932;-77
2023/03/18 15:20:04;;;;;;;;;;;;;;;;;;4427563;32;20209;-79
2023/03/18 15:22:29;;;;;;;;;;;;;;;;;;4427947;32;20011;-78
2023/03/18 15:24:54;;;;;;;;;;;;;;;;;;4427137;32;20249;-79
2023/03/18 15:27:21;;;;;;;;;;;;;;;;;;4428526;32;19933;-79
2023/03/18 15:29:46;;;;;;;;;;;;;;;;;;4427093;32;19933;-79
2023/03/18 15:32:11;;;;;;;;;;;;;;;;;;4427389;32;19952;-79
2023/03/18 15:34:36;;;;;;;;;;;;;;;;;;4428699;32;19937;-79
2023/03/18 15:37:03;;;;;;;;;;;;;;;;;;4429536;32;19948;-78
2023/03/18 15:39:31;;;;;;;;;;;;;;;;;;4439916;32;19937;-78
2023/03/18 15:41:56;;;;;;;;;;;;;;;;;;4449101;32;19973;-78
2023/03/18 15:44:21;;;;;;;;;;;;;;;;;;4446047;32;19937;-79
2023/03/18 15:46:47;;;;;;;;;;;;;;;;;;4439974;32;19967;-79
2023/03/18 15:49:12;;;;;;;;;;;;;;;;;;4442008;32;20293;-77
2023/03/18 15:51:39;;;;;;;;;;;;;;;;;;4439974;32;19937;-78
2023/03/18 15:54:05;;;;;;;;;;;;;;;;;;4437578;32;20316;-79
2023/03/18 15:56:30;;;;;;;;;;;;;;;;;;4435688;32;19956;-78
2023/03/18 15:58:55;;;;;;;;;;;;;;;;;;4438426;32;19951;-79
2023/03/18 16:01:21;;;;;;;;;;;;;;;;;;4438373;32;19940;-79
2023/03/18 16:03:46;;;;;;;;;;;;;;;;;;4436470;32;20334;-78
2023/03/18 16:06:11;;;;;;;;;;;;;;;;;;4436828;32;19949;-78
2023/03/18 16:08:36;;;;;;;;;;;;;;;;;;4438158;32;20359;-78
2023/03/18 16:11:02;;;;;;;;;;;;;;;;;;4435422;32;19954;-77
2023/03/18 16:13:28;;;;;;;;;;;;;;;;;;4437268;32;19932;-78
2023/03/18 16:15:53;;;;;;;;;;;;;;;;;;4435111;32;20335;-79
2023/03/18 16:18:18;;;;;;;;;;;;;;;;;;4436326;32;19976;-79
2023/03/18 16:20:45;;;;;;;;;;;;;;;;;;4436537;32;19972;-78
2023/03/18 16:23:11;;;;;;;;;;;;;;;;;;4435453;32;19987;-77
2023/03/18 16:25:36;;;;;;;;;;;;;;;;;;4435900;32;19937;-78
2023/03/18 16:28:01;;;;;;;;;;;;;;;;;;4435797;32;19948;-78
2023/03/18 16:30:27;;;;;;;;;;;;;;;;;;4435857;32;19932;-78
2023/03/18 16:32:52;;;;;;;;;;;;;;;;;;4434895;32;19956;-77
2023/03/18 16:35:18;;;;;;;;;;;;;;;;;;4434994;32;19941;-78
2023/03/18 16:37:43;;;;;;;;;;;;;;;;;;4434597;32;20290;-77
2023/03/18 16:40:09;;;;;;;;;;;;;;;;;;4436830;32;19952;-78
2023/03/18 16:42:34;;;;;;;;;;;;;;;;;;4436514;32;20033;-77
2023/03/18 16:44:59;;;;;;;;;;;;;;;;;;4440892;32;19984;-77
2023/03/18 16:47:25;;;;;;;;;;;;;;;;;;4440397;32;19964;-77
2023/03/18 16:49:50;;;;;;;;;;;;;;;;;;4439640;32;19975;-77
2023/03/18 16:52:15;;;;;;;;;;;;;;;;;;4439250;32;19933;-78